Time;durP1;ratioP1;P1;durP2;ratioP2;P2;SDS_P1;SDS_P2;PMS_P1;PMS_P2;Temp;Humidity;BMP_temperature;BMP_pressure;BME280_temperature;BME280_humidity;BME280_pressure;Samples;Min_cycle;Max_cycle;Signal;HPM_P1;HPM_P2
2023/10/21 00:02:25;;;;;;;8.85;2.30;;;15.50;79.90;;;;;;5079484;28;20407;-81
2023/10/21 00:04:51;;;;;;;6.03;2.40;;;15.50;79.90;;;;;;5080951;28;20124;-81
2023/10/21 00:07:17;;;;;;;5.82;2.72;;;15.50;79.90;;;;;;5072104;28;20020;-81
2023/10/21 00:09:42;;;;;;;5.57;1.95;;;15.50;79.90;;;;;;5075407;28;20726;-82
2023/10/21 00:12:08;;;;;;;9.30;2.10;;;15.50;79.90;;;;;;5063295;28;20103;-81
2023/10/21 00:14:34;;;;;;;8.35;2.10;;;15.50;79.90;;;;;;5078857;28;20043;-80
2023/10/21 00:17:00;;;;;;;7.78;2.97;;;15.50;79.90;;;;;;5079240;28;20028;-78
2023/10/21 00:19:26;;;;;;;9.43;2.03;;;15.50;79.90;;;;;;5081458;28;20372;-78
2023/10/21 00:21:53;;;;;;;9.48;2.50;;;15.40;79.80;;;;;;5081758;28;20059;-78
2023/10/21 00:24:20;;;;;;;3.83;1.60;;;15.50;79.90;;;;;;5074838;28;20043;-78
2023/10/21 00:26:47;;;;;;;6.05;1.92;;;15.40;79.80;;;;;;5075166;28;20549;-80
2023/10/21 00:29:14;;;;;;;6.80;2.22;;;15.40;79.90;;;;;;5081456;28;20024;-79
2023/10/21 00:31:43;;;;;;;4.28;2.05;;;15.40;79.90;;;;;;5064275;28;20448;-77
2023/10/21 00:34:12;;;;;;;6.57;2.03;;;15.40;79.90;;;;;;5062302;28;20059;-77
2023/10/21 00:36:38;;;;;;;10.30;2.17;;;15.40;80.00;;;;;;5073623;28;20475;-77
2023/10/21 00:39:10;;;;;;;5.22;2.00;;;15.40;80.00;;;;;;5079605;28;20127;-77
2023/10/21 00:41:38;;;;;;;4.97;1.95;;;15.30;79.80;;;;;;5071557;28;20153;-77
2023/10/21 00:44:05;;;;;;;6.40;1.80;;;15.30;79.80;;;;;;5091045;28;20286;-77
2023/10/21 00:46:31;;;;;;;6.13;2.03;;;15.30;79.80;;;;;;5091994;28;20067;-77
2023/10/21 00:48:57;;;;;;;4.78;1.83;;;15.30;79.80;;;;;;5078637;28;20032;-77
2023/10/21 00:51:25;;;;;;;7.43;1.50;;;15.30;79.80;;;;;;5061014;28;20037;-77
2023/10/21 00:53:52;;;;;;;4.57;2.28;;;15.30;79.90;;;;;;5065658;28;20035;-78
2023/10/21 00:56:18;;;;;;;5.93;1.90;;;15.20;79.70;;;;;;5045976;28;20044;-78
2023/10/21 00:58:44;;;;;;;6.53;1.88;;;15.20;79.60;;;;;;5062908;28;20040;-78
2023/10/21 01:01:13;;;;;;;6.55;2.33;;;15.10;79.50;;;;;;5061666;28;20033;-78
2023/10/21 01:03:40;;;;;;;5.55;1.73;;;15.10;79.50;;;;;;5047792;28;20071;-78
2023/10/21 01:06:06;;;;;;;7.88;2.17;;;15.10;79.50;;;;;;5061365;28;20036;-78
2023/10/21 01:08:42;;;;;;;6.97;2.20;;;15.00;79.40;;;;;;5070881;28;20139;-78
2023/10/21 01:11:10;;;;;;;5.28;1.52;;;15.00;79.40;;;;;;5055712;28;20648;-78
2023/10/21 01:13:35;;;;;;;5.07;1.77;;;14.90;79.30;;;;;;5065037;28;20293;-78
2023/10/21 01:16:02;;;;;;;5.63;2.35;;;14.90;79.30;;;;;;5059755;28;20028;-78
2023/10/21 01:18:33;;;;;;;4.88;1.70;;;14.90;79.30;;;;;;5060561;28;20037;-78
2023/10/21 01:21:02;;;;;;;4.30;2.33;;;14.90;79.30;;;;;;5060433;28;20556;-78
2023/10/21 01:23:30;;;;;;;5.07;2.00;;;14.80;79.20;;;;;;5063530;28;20111;-78
2023/10/21 01:25:56;;;;;;;4.47;1.65;;;14.80;79.20;;;;;;5064073;28;20032;-78
2023/10/21 01:28:22;;;;;;;4.93;1.67;;;14.70;79.00;;;;;;5043311;28;20029;-78
2023/10/21 01:30:48;;;;;;;5.47;1.80;;;14.70;79.10;;;;;;5062572;28;20336;-78
2023/10/21 01:33:14;;;;;;;5.05;1.85;;;14.70;79.00;;;;;;5045284;28;20024;-78
2023/10/21 01:35:40;;;;;;;7.22;1.95;;;14.60;78.90;;;;;;5059885;28;20423;-78
2023/10/21 01:38:06;;;;;;;5.28;1.60;;;14.60;78.90;;;;;;5053108;28;20470;-78
2023/10/21 01:40:32;;;;;;;4.63;1.77;;;14.50;78.70;;;;;;5051040;28;20091;-78
2023/10/21 01:42:58;;;;;;;4.70;2.10;;;14.50;78.70;;;;;;5064111;28;20020;-78
2023/10/21 01:45:24;;;;;;;4.07;2.00;;;14.50;78.60;;;;;;5067558;28;20097;-78
2023/10/21 01:47:51;;;;;;;3.05;1.60;;;14.50;78.60;;;;;;5046612;28;20024;-78
2023/10/21 01:50:17;;;;;;;4.25;2.28;;;14.40;78.40;;;;;;5061089;28;20048;-78
2023/10/21 01:52:44;;;;;;;5.22;2.05;;;14.40;78.40;;;;;;5077738;28;20492;-78
2023/10/21 01:55:10;;;;;;;3.42;1.48;;;14.30;78.30;;;;;;5060279;28;20953;-78
2023/10/21 01:57:37;;;;;;;3.63;1.75;;;14.30;78.30;;;;;;5045725;28;20071;-78
2023/10/21 02:00:05;;;;;;;5.30;2.00;;;14.30;78.30;;;;;;5058738;28;20455;-77
2023/10/21 02:02:39;;;;;;;3.67;2.00;;;14.30;78.30;;;;;;5066161;28;20084;-79
2023/10/21 02:05:06;;;;;;;4.18;1.60;;;14.30;78.40;;;;;;5060977;28;20059;-78
2023/10/21 02:07:37;;;;;;;6.53;1.60;;;14.30;78.40;;;;;;5058676;28;20468;-77
2023/10/21 02:10:05;;;;;;;5.00;1.63;;;14.20;78.20;;;;;;5060303;28;20111;-78
2023/10/21 02:12:31;;;;;;;4.63;1.55;;;14.20;78.30;;;;;;5060771;28;20036;-78
2023/10/21 02:14:58;;;;;;;5.32;1.83;;;14.20;78.20;;;;;;5061268;28;20033;-77
2023/10/21 02:17:24;;;;;;;3.25;1.67;;;14.30;78.50;;;;;;5059335;28;20048;-78
2023/10/21 02:19:56;;;;;;;3.95;1.60;;;14.20;78.30;;;;;;5055652;28;20052;-77
2023/10/21 02:22:24;;;;;;;3.15;2.00;;;14.30;78.50;;;;;;5059982;28;20040;-77
2023/10/21 02:24:51;;;;;;;3.53;1.73;;;14.30;78.40;;;;;;5060292;28;20507;-77
2023/10/21 02:27:18;;;;;;;4.53;1.45;;;14.30;78.40;;;;;;5061152;28;20039;-77
2023/10/21 02:29:43;;;;;;;5.20;2.05;;;14.20;78.20;;;;;;5060333;28;20051;-77
2023/10/21 02:32:09;;;;;;;2.92;1.52;;;14.20;78.20;;;;;;5059428;28;20066;-78
2023/10/21 02:34:35;;;;;;;3.38;1.50;;;14.30;78.50;;;;;;5041208;28;20539;-77
2023/10/21 02:37:02;;;;;;;4.00;1.77;;;14.20;78.30;;;;;;5071474;28;20056;-77
2023/10/21 02:39:29;;;;;;;3.40;1.55;;;14.20;78.40;;;;;;5053994;28;20543;-77
2023/10/21 02:41:55;;;;;;;3.85;1.80;;;14.20;78.40;;;;;;5057717;28;20365;-78
2023/10/21 02:44:22;;;;;;;4.68;1.65;;;14.20;78.40;;;;;;5060734;28;20058;-78
2023/10/21 02:46:48;;;;;;;3.47;1.40;;;14.20;78.50;;;;;;5059657;28;20028;-78
2023/10/21 02:49:15;;;;;;;3.08;1.40;;;14.20;78.50;;;;;;5061042;28;20017;-77
2023/10/21 02:51:41;;;;;;;4.75;1.80;;;14.20;78.50;;;;;;5059753;28;20059;-78
2023/10/21 02:54:07;;;;;;;2.25;1.20;;;14.20;78.50;;;;;;5059863;28;20468;-77
2023/10/21 02:56:34;;;;;;;4.05;1.65;;;14.20;78.50;;;;;;5060227;28;20021;-78
2023/10/21 02:59:01;;;;;;;3.03;1.67;;;14.20;78.50;;;;;;5060237;28;20447;-79
2023/10/21 03:01:26;;;;;;;2.47;1.50;;;14.20;78.60;;;;;;5058893;28;20475;-77
2023/10/21 03:03:53;;;;;;;2.40;1.17;;;14.20;78.60;;;;;;5060489;28;20105;-77
2023/10/21 03:06:21;;;;;;;4.72;1.60;;;14.20;78.60;;;;;;5058437;28;20269;-77
2023/10/21 03:08:47;;;;;;;4.30;1.17;;;14.20;78.60;;;;;;5044171;28;20081;-77
2023/10/21 03:11:16;;;;;;;2.95;1.30;;;14.20;78.60;;;;;;5053072;28;20036;-77
2023/10/21 03:13:43;;;;;;;4.80;1.42;;;14.20;78.60;;;;;;5059871;28;20492;-78
2023/10/21 03:16:14;;;;;;;2.85;1.42;;;14.20;79.20;;;;;;5059315;28;20028;-78
2023/10/21 03:18:41;;;;;;;2.35;1.20;;;14.20;78.70;;;;;;5060532;28;20028;-78
2023/10/21 03:21:07;;;;;;;3.22;1.25;;;14.20;78.70;;;;;;5043357;28;20040;-78
2023/10/21 03:23:34;;;;;;;3.25;1.10;;;14.20;78.70;;;;;;5060325;28;20605;-78
2023/10/21 03:26:03;;;;;;;3.47;1.48;;;14.20;78.70;;;;;;5057127;28;20054;-78
2023/10/21 03:28:30;;;;;;;3.65;1.50;;;14.20;78.70;;;;;;5061136;28;20037;-78
2023/10/21 03:31:04;;;;;;;4.00;1.35;;;14.30;79.00;;;;;;5058086;28;20025;-77
2023/10/21 03:33:30;;;;;;;3.53;1.45;;;14.20;78.80;;;;;;5059757;28;20405;-77
2023/10/21 03:36:01;;;;;;;3.20;0.93;;;14.20;78.90;;;;;;5062203;28;20020;-78
2023/10/21 03:38:27;;;;;;;4.00;1.38;;;14.20;79.40;;;;;;5059368;28;20044;-77
2023/10/21 03:41:04;;;;;;;1.83;0.95;;;14.20;78.90;;;;;;5052866;28;20030;-77
2023/10/21 03:43:30;;;;;;;2.00;1.30;;;14.20;79.00;;;;;;5057284;28;20059;-78
2023/10/21 03:45:56;;;;;;;4.50;1.40;;;14.20;79.00;;;;;;5043474;28;20032;-77
2023/10/21 03:48:23;;;;;;;2.88;1.38;;;14.30;79.20;;;;;;5061074;28;20029;-77
2023/10/21 03:50:49;;;;;;;2.50;1.08;;;14.30;79.20;;;;;;5060888;28;20038;-77
2023/10/21 03:53:16;;;;;;;4.97;2.25;;;14.30;79.20;;;;;;5059725;28;20035;-77
2023/10/21 03:55:43;;;;;;;4.70;1.10;;;14.30;79.30;;;;;;5057813;28;20596;-77
2023/10/21 03:58:13;;;;;;;3.42;0.98;;;14.30;79.30;;;;;;5059888;28;20024;-77
2023/10/21 04:00:40;;;;;;;3.53;1.17;;;14.30;79.40;;;;;;5058070;28;20404;-77
2023/10/21 04:03:07;;;;;;;3.85;1.20;;;14.30;79.40;;;;;;5061372;28;20020;-77
2023/10/21 04:05:34;;;;;;;2.85;1.35;;;14.30;79.40;;;;;;5040731;28;20032;-77
2023/10/21 04:08:04;;;;;;;3.13;1.08;;;14.30;79.40;;;;;;5060478;28;20054;-77
2023/10/21 04:10:31;;;;;;;1.63;1.00;;;14.30;79.40;;;;;;5059008;28;20033;-78
2023/10/21 04:12:58;;;;;;;4.55;1.17;;;14.30;79.40;;;;;;5060580;28;20036;-78
2023/10/21 04:15:25;;;;;;;1.70;0.95;;;14.30;79.40;;;;;;5059505;28;20024;-79
2023/10/21 04:17:54;;;;;;;3.67;1.55;;;14.30;79.50;;;;;;5061556;28;20038;-79
2023/10/21 04:20:20;;;;;;;4.45;1.27;;;14.30;79.50;;;;;;5058946;28;20392;-77
2023/10/21 04:22:46;;;;;;;3.92;1.10;;;14.30;79.50;;;;;;5060109;28;20035;-80
2023/10/21 04:25:12;;;;;;;2.28;1.00;;;14.30;79.60;;;;;;5058939;28;20585;-81
2023/10/21 04:27:38;;;;;;;1.55;0.98;;;14.30;79.60;;;;;;5095301;28;20032;-82
2023/10/21 04:30:04;;;;;;;4.53;1.08;;;14.30;79.60;;;;;;5062156;28;20397;-81
2023/10/21 04:32:31;;;;;;;1.60;1.02;;;14.30;79.60;;;;;;5062157;28;20131;-80
2023/10/21 04:34:58;;;;;;;3.40;0.85;;;14.20;79.50;;;;;;5062339;28;20572;-81
2023/10/21 04:37:24;;;;;;;3.20;1.10;;;14.20;79.50;;;;;;5063369;28;20029;-82
2023/10/21 04:39:51;;;;;;;2.78;1.67;;;14.20;79.50;;;;;;5060796;28;20080;-79
2023/10/21 04:42:17;;;;;;;3.90;1.25;;;14.20;79.50;;;;;;5062117;28;20020;-79
2023/10/21 04:44:44;;;;;;;3.78;1.20;;;14.30;79.60;;;;;;5062371;28;20039;-81
2023/10/21 04:47:11;;;;;;;1.98;0.90;;;14.20;79.50;;;;;;5063330;28;20024;-80
2023/10/21 04:49:38;;;;;;;2.42;0.70;;;14.20;79.50;;;;;;5052629;28;20044;-80
2023/10/21 04:52:04;;;;;;;7.30;1.40;;;14.20;79.50;;;;;;5062975;28;20086;-80
2023/10/21 04:54:30;;;;;;;2.22;1.05;;;14.10;79.30;;;;;;5046409;28;20029;-80
2023/10/21 04:56:56;;;;;;;1.77;0.85;;;14.10;79.30;;;;;;5061727;28;20506;-78
2023/10/21 04:59:22;;;;;;;3.70;1.17;;;14.10;79.40;;;;;;5059922;28;20064;-79
2023/10/21 05:01:48;;;;;;;4.13;1.10;;;14.10;79.40;;;;;;5060214;28;20495;-79
2023/10/21 05:04:14;;;;;;;3.22;1.00;;;14.10;79.40;;;;;;5060610;28;20450;-79
2023/10/21 05:06:40;;;;;;;6.03;1.38;;;14.10;79.50;;;;;;5061102;28;20083;-79
2023/10/21 05:09:07;;;;;;;3.00;0.90;;;14.10;79.50;;;;;;5044081;28;20481;-79
2023/10/21 05:11:32;;;;;;;5.85;2.50;;;14.00;79.30;;;;;;5059093;28;20127;-79
2023/10/21 05:13:59;;;;;;;3.47;1.30;;;14.10;79.60;;;;;;5045702;28;20028;-79
2023/10/21 05:16:25;;;;;;;3.20;1.30;;;14.10;79.60;;;;;;5045486;28;20028;-79
2023/10/21 05:18:51;;;;;;;4.35;1.27;;;14.10;79.60;;;;;;5061701;28;20036;-83
2023/10/21 05:21:17;;;;;;;5.60;1.30;;;14.10;79.60;;;;;;5059415;28;20067;-82
2023/10/21 05:23:42;;;;;;;3.50;1.38;;;14.10;79.60;;;;;;5062356;28;20752;-82
2023/10/21 05:26:08;;;;;;;3.17;1.35;;;14.10;79.60;;;;;;5058668;28;20079;-82
2023/10/21 05:28:34;;;;;;;2.60;1.10;;;14.10;79.60;;;;;;5061948;28;20058;-81
2023/10/21 05:31:03;;;;;;;2.97;1.45;;;14.10;79.60;;;;;;5061159;28;20024;-82
2023/10/21 05:33:29;;;;;;;3.28;1.75;;;14.10;79.60;;;;;;5063494;28;20036;-82
2023/10/21 05:35:59;;;;;;;1.67;1.58;;;14.10;79.60;;;;;;5056422;28;20343;-83
2023/10/21 05:38:26;;;;;;;1.77;1.52;;;14.10;79.60;;;;;;5059819;28;20040;-81
2023/10/21 05:40:52;;;;;;;3.38;1.50;;;14.10;79.60;;;;;;5058996;28;20064;-81
2023/10/21 05:43:18;;;;;;;1.58;1.40;;;14.10;79.50;;;;;;5044109;28;20784;-81
2023/10/21 05:45:44;;;;;;;2.75;1.65;;;14.20;79.70;;;;;;5025085;28;20045;-77
2023/10/21 05:48:11;;;;;;;1.60;1.10;;;14.10;79.50;;;;;;5060021;28;20379;-80
2023/10/21 05:50:37;;;;;;;2.40;1.80;;;14.10;79.50;;;;;;5064203;28;20032;-78
2023/10/21 05:53:06;;;;;;;1.40;1.23;;;14.10;79.50;;;;;;5058261;28;20434;-79
2023/10/21 05:55:32;;;;;;;1.85;1.63;;;14.10;79.40;;;;;;5040575;28;20511;-79
2023/10/21 05:57:59;;;;;;;4.30;1.75;;;14.10;79.40;;;;;;5060606;28;20593;-80
2023/10/21 06:00:25;;;;;;;1.88;1.30;;;14.10;79.40;;;;;;5056987;28;20047;-79
2023/10/21 06:02:51;;;;;;;1.35;1.25;;;14.10;79.40;;;;;;5059940;28;20105;-80
2023/10/21 06:05:17;;;;;;;1.50;1.40;;;14.00;79.20;;;;;;5064332;28;20071;-78
2023/10/21 06:07:43;;;;;;;1.60;1.50;;;14.00;79.20;;;;;;5060871;28;20040;-78
2023/10/21 06:10:09;;;;;;;2.15;1.67;;;14.00;79.20;;;;;;5059661;28;20079;-79
2023/10/21 06:12:36;;;;;;;1.77;1.50;;;14.00;79.10;;;;;;5057456;28;20567;-81
2023/10/21 06:15:02;;;;;;;1.23;1.13;;;14.00;79.10;;;;;;5039866;28;20036;-78
2023/10/21 06:17:28;;;;;;;1.30;1.20;;;14.00;79.10;;;;;;5057903;28;20507;-79
2023/10/21 06:19:54;;;;;;;1.33;1.23;;;14.00;79.10;;;;;;5067720;28;20054;-79
2023/10/21 06:22:22;;;;;;;1.77;1.67;;;14.00;79.10;;;;;;5063881;28;20516;-80
2023/10/21 06:24:48;;;;;;;1.48;1.38;;;14.00;79.10;;;;;;5064311;28;20434;-79
2023/10/21 06:27:14;;;;;;;1.55;1.35;;;14.00;79.60;;;;;;5063616;28;20632;-80
2023/10/21 06:29:40;;;;;;;1.85;1.75;;;13.90;78.90;;;;;;5057031;28;20039;-79
2023/10/21 06:32:08;;;;;;;1.70;1.60;;;13.90;78.80;;;;;;5064413;28;20024;-79
2023/10/21 06:34:35;;;;;;;2.78;1.90;;;13.90;78.70;;;;;;5055436;28;20275;-77
2023/10/21 06:37:04;;;;;;;2.00;1.90;;;13.90;78.70;;;;;;5060094;28;20369;-79
2023/10/21 06:39:31;;;;;;;2.00;1.90;;;13.90;78.60;;;;;;5055010;28;20051;-79
2023/10/21 06:41:57;;;;;;;2.03;1.90;;;13.90;78.50;;;;;;5053641;28;20503;-80
2023/10/21 06:44:23;;;;;;;2.08;1.90;;;13.90;78.50;;;;;;5062559;28;20062;-82
2023/10/21 06:46:50;;;;;;;1.90;1.80;;;13.90;78.50;;;;;;5054829;28;20058;-81
2023/10/21 06:49:15;;;;;;;2.50;2.30;;;13.90;78.40;;;;;;5059672;28;20039;-77
2023/10/21 06:51:41;;;;;;;3.00;2.05;;;13.90;78.50;;;;;;5057462;28;20418;-82
2023/10/21 06:54:09;;;;;;;2.60;2.10;;;13.90;78.50;;;;;;5065000;28;20081;-82
2023/10/21 06:56:35;;;;;;;2.58;2.40;;;13.90;78.40;;;;;;5057009;28;20377;-79
2023/10/21 06:59:02;;;;;;;2.42;2.22;;;13.90;78.40;;;;;;5060789;28;20066;-80
2023/10/21 07:01:28;;;;;;;3.38;2.15;;;13.90;78.30;;;;;;5057341;28;20195;-82
2023/10/21 07:03:55;;;;;;;2.40;2.30;;;13.90;78.30;;;;;;5057548;28;20118;-82
2023/10/21 07:06:20;;;;;;;3.45;2.83;;;13.90;78.20;;;;;;5053420;28;20551;-80
2023/10/21 07:08:46;;;;;;;5.95;3.70;;;13.90;78.30;;;;;;5057656;28;20375;-79
2023/10/21 07:11:13;;;;;;;6.90;2.97;;;13.90;78.40;;;;;;5057889;28;20055;-82
2023/10/21 07:13:39;;;;;;;6.88;2.72;;;14.00;78.80;;;;;;5057586;28;20031;-81
2023/10/21 07:16:12;;;;;;;2.78;2.15;;;14.00;78.80;;;;;;5055637;28;20032;-82
2023/10/21 07:18:39;;;;;;;4.57;2.70;;;14.00;78.70;;;;;;5059057;28;20039;-80
2023/10/21 07:21:08;;;;;;;5.35;2.35;;;14.10;78.70;;;;;;5053149;28;20032;-80
2023/10/21 07:23:34;;;;;;;5.30;1.88;;;14.10;78.70;;;;;;5056694;28;20039;-80
2023/10/21 07:26:00;;;;;;;4.50;2.83;;;14.20;79.20;;;;;;5054579;28;20031;-79
2023/10/21 07:28:26;;;;;;;4.82;2.00;;;14.30;79.50;;;;;;5038682;28;20032;-79
2023/10/21 07:30:54;;;;;;;5.95;1.45;;;14.40;79.80;;;;;;5056565;28;20059;-79
2023/10/21 07:33:22;;;;;;;2.67;2.22;;;14.60;80.20;;;;;;5057242;28;20036;-79
2023/10/21 07:35:52;;;;;;;4.07;1.40;;;14.70;80.20;;;;;;5057432;28;20029;-80
2023/10/21 07:38:19;;;;;;;2.35;1.80;;;14.80;80.30;;;;;;5054026;28;20036;-81
2023/10/21 07:40:46;;;;;;;3.30;1.48;;;14.90;80.20;;;;;;5052019;28;20040;-79
2023/10/21 07:43:17;;;;;;;2.50;1.50;;;15.10;80.40;;;;;;5056017;28;20051;-81
2023/10/21 07:45:44;;;;;;;2.85;1.17;;;15.20;80.40;;;;;;5055415;28;20041;-82
2023/10/21 07:48:10;;;;;;;1.83;1.25;;;15.40;80.40;;;;;;5054152;28;20502;-81
2023/10/21 07:50:37;;;;;;;4.00;1.30;;;15.50;80.30;;;;;;5055909;28;20036;-81
2023/10/21 07:53:04;;;;;;;1.20;1.10;;;15.60;80.10;;;;;;5057120;28;20472;-80
2023/10/21 07:55:30;;;;;;;2.25;1.20;;;15.80;80.20;;;;;;5050504;28;20494;-82
2023/10/21 07:57:56;;;;;;;2.63;1.45;;;15.90;80.00;;;;;;5055641;28;20028;-82
2023/10/21 08:00:22;;;;;;;2.35;1.00;;;15.90;79.70;;;;;;5056103;28;20059;-81
2023/10/21 08:02:48;;;;;;;3.30;1.20;;;16.00;79.70;;;;;;5042024;28;20420;-81
2023/10/21 08:05:15;;;;;;;1.30;0.93;;;16.10;79.70;;;;;;5059601;28;20051;-81
2023/10/21 08:07:41;;;;;;;1.13;1.00;;;16.20;79.70;;;;;;5061349;28;20165;-80
2023/10/21 08:10:09;;;;;;;1.25;0.90;;;16.20;79.50;;;;;;5060251;28;20032;-81
2023/10/21 08:12:36;;;;;;;1.10;1.00;;;16.30;79.50;;;;;;5059479;28;20063;-79
2023/10/21 08:15:10;;;;;;;0.85;0.80;;;16.30;79.40;;;;;;5067062;28;20067;-81
2023/10/21 08:17:36;;;;;;;1.58;0.70;;;16.40;79.30;;;;;;5059875;28;20033;-82
2023/10/21 08:20:03;;;;;;;0.70;0.70;;;16.40;79.00;;;;;;5061806;28;20043;-81
2023/10/21 08:22:30;;;;;;;1.25;0.70;;;16.40;78.80;;;;;;5063876;28;20442;-82
2023/10/21 08:24:56;;;;;;;0.73;0.70;;;16.40;78.70;;;;;;5064363;28;20495;-83
2023/10/21 08:27:23;;;;;;;1.35;0.60;;;16.40;78.60;;;;;;5061608;28;20322;-83
2023/10/21 08:29:49;;;;;;;0.65;0.50;;;16.40;78.50;;;;;;5061920;28;20040;-82
2023/10/21 08:32:15;;;;;;;0.52;0.50;;;16.30;78.20;;;;;;5048468;28;20059;-82
2023/10/21 08:34:41;;;;;;;1.35;0.40;;;16.40;78.30;;;;;;5058689;28;20159;-83
2023/10/21 08:37:07;;;;;;;0.40;0.40;;;16.30;78.20;;;;;;5058165;28;20570;-83
2023/10/21 08:39:34;;;;;;;1.27;0.50;;;16.40;78.30;;;;;;5047343;28;20067;-83
2023/10/21 08:42:02;;;;;;;0.68;0.43;;;16.40;78.20;;;;;;5039714;28;20039;-82
2023/10/21 08:44:30;;;;;;;1.25;0.30;;;16.40;78.10;;;;;;5042524;28;20559;-82
2023/10/21 08:46:58;;;;;;;0.40;0.40;;;16.40;77.90;;;;;;5063526;28;20028;-81
2023/10/21 08:49:25;;;;;;;0.30;0.28;;;16.40;77.80;;;;;;5062475;28;20028;-84
2023/10/21 08:51:53;;;;;;;0.30;0.30;;;16.40;77.80;;;;;;5056889;28;20032;-84
2023/10/21 08:54:19;;;;;;;0.90;0.32;;;16.40;77.60;;;;;;5066898;28;20369;-83
2023/10/21 08:56:48;;;;;;;0.50;0.30;;;16.50;77.60;;;;;;5061034;28;20405;-80
2023/10/21 08:59:14;;;;;;;0.20;0.20;;;16.40;77.40;;;;;;5062074;28;20635;-81
2023/10/21 09:01:40;;;;;;;0.50;0.30;;;16.50;77.50;;;;;;5053085;28;20555;-81
2023/10/21 09:04:07;;;;;;;0.30;0.30;;;16.50;77.40;;;;;;5088420;27;20063;-83
2023/10/21 09:06:33;;;;;;;0.30;0.30;;;16.50;77.20;;;;;;5064015;28;20064;-82
2023/10/21 09:08:59;;;;;;;0.45;0.30;;;16.60;77.20;;;;;;5063653;28;20158;-82
2023/10/21 09:11:26;;;;;;;0.88;0.50;;;16.60;77.10;;;;;;5062700;28;20033;-83
2023/10/21 09:13:58;;;;;;;0.77;0.47;;;16.70;77.10;;;;;;5057226;28;20095;-85
2023/10/21 09:16:31;;;;;;;0.30;0.30;;;16.70;77.00;;;;;;5069079;28;20043;-82
2023/10/21 09:19:10;;;;;;;1.48;0.47;;;16.70;76.80;;;;;;5056097;28;20028;-82
2023/10/21 09:21:37;;;;;;;0.32;0.30;;;16.80;76.90;;;;;;5062579;28;20151;-82
2023/10/21 09:24:10;;;;;;;0.40;0.40;;;16.90;76.90;;;;;;5065239;28;20043;-83
2023/10/21 09:26:41;;;;;;;0.77;0.38;;;17.00;76.80;;;;;;5077787;28;20536;-83
2023/10/21 09:29:11;;;;;;;0.95;0.30;;;17.00;76.60;;;;;;5064499;28;20025;-85
2023/10/21 09:31:53;;;;;;;0.30;0.30;;;17.10;76.60;;;;;;5062393;28;20063;-85
2023/10/21 09:34:32;;;;;;;0.30;0.30;;;17.10;76.30;;;;;;5062851;28;20440;-81
2023/10/21 09:37:06;;;;;;;0.70;0.30;;;17.20;76.40;;;;;;5063832;28;20036;-81
2023/10/21 09:39:36;;;;;;;0.57;0.57;;;17.30;76.30;;;;;;5061153;28;20048;-80
2023/10/21 09:42:04;;;;;;;0.65;0.40;;;17.30;76.20;;;;;;5055587;28;20047;-81
2023/10/21 09:44:31;;;;;;;0.40;0.40;;;17.30;76.10;;;;;;5067379;28;20024;-81
2023/10/21 09:47:00;;;;;;;0.30;0.30;;;17.40;76.10;;;;;;5062565;28;20033;-81
2023/10/21 09:49:29;;;;;;;1.25;0.50;;;17.40;75.80;;;;;;5071772;28;20515;-81
2023/10/21 09:52:04;;;;;;;0.40;0.30;;;17.40;75.70;;;;;;5063516;28;20036;-81
2023/10/21 09:54:52;;;;;;;0.95;0.40;;;17.50;75.80;;;;;;5064803;28;20044;-81
2023/10/21 09:57:19;;;;;;;0.65;0.50;;;17.60;75.90;;;;;;5063605;28;20419;-80
2023/10/21 09:59:47;;;;;;;0.68;0.40;;;17.70;76.50;;;;;;5057250;28;20089;-81
2023/10/21 10:02:14;;;;;;;0.50;0.50;;;17.80;76.10;;;;;;5086846;27;20033;-81
2023/10/21 10:04:41;;;;;;;1.33;0.38;;;18.00;76.00;;;;;;5056953;28;20043;-80
2023/10/21 10:07:07;;;;;;;0.50;0.32;;;18.10;75.80;;;;;;5062838;28;20552;-82
2023/10/21 10:09:38;;;;;;;0.40;0.40;;;18.30;75.70;;;;;;5059760;28;20119;-80
2023/10/21 10:12:12;;;;;;;0.85;0.40;;;18.50;75.50;;;;;;5065894;28;20460;-80
2023/10/21 10:14:38;;;;;;;1.75;0.45;;;18.70;75.30;;;;;;5065889;28;20127;-80
2023/10/21 10:17:06;;;;;;;1.15;0.30;;;18.90;75.10;;;;;;5061279;28;20038;-81
2023/10/21 10:19:39;;;;;;;0.98;0.50;;;19.00;74.90;;;;;;5063543;28;21347;-81
2023/10/21 10:22:27;;;;;;;5.57;0.60;;;19.10;74.60;;;;;;5063447;28;20032;-82
2023/10/21 10:25:10;;;;;;;1.23;0.50;;;19.30;74.30;;;;;;5060098;28;20036;-82
2023/10/21 10:27:40;;;;;;;5.93;0.75;;;19.40;74.00;;;;;;5064291;28;20032;-84
2023/10/21 10:30:19;;;;;;;1.65;0.60;;;19.50;73.90;;;;;;5055611;28;20028;-83
2023/10/21 10:32:49;;;;;;;0.55;0.50;;;19.60;73.70;;;;;;5041638;28;20036;-82
2023/10/21 10:35:32;;;;;;;1.05;0.65;;;19.70;73.60;;;;;;5058667;28;20107;-84
2023/10/21 10:37:59;;;;;;;0.50;0.50;;;19.70;72.90;;;;;;5051627;28;20036;-84
2023/10/21 10:40:33;;;;;;;0.93;0.70;;;19.70;72.80;;;;;;5054818;28;20084;-83
2023/10/21 10:43:00;;;;;;;1.30;0.77;;;19.60;72.20;;;;;;5036491;28;20420;-81
2023/10/21 10:45:26;;;;;;;1.83;0.70;;;19.60;72.80;;;;;;5069226;28;20065;-83
2023/10/21 10:48:03;;;;;;;1.08;0.70;;;19.50;72.00;;;;;;5058778;28;20032;-82
2023/10/21 10:50:36;;;;;;;1.92;0.77;;;19.30;71.50;;;;;;5062146;28;20073;-83
2023/10/21 10:53:12;;;;;;;0.90;0.80;;;19.20;71.50;;;;;;5067058;28;20036;-86
2023/10/21 10:55:41;;;;;;;1.73;0.70;;;19.10;71.40;;;;;;5040603;28;20403;-80
2023/10/21 10:58:08;;;;;;;1.40;0.85;;;19.00;71.70;;;;;;5055465;28;20082;-84
2023/10/21 11:00:34;;;;;;;2.72;0.90;;;18.90;71.90;;;;;;5056354;28;20048;-85
2023/10/21 11:03:02;;;;;;;1.75;0.90;;;18.90;72.10;;;;;;5057120;28;20069;-83
2023/10/21 11:05:29;;;;;;;0.90;0.68;;;18.90;72.00;;;;;;5064823;28;20039;-83
2023/10/21 11:07:55;;;;;;;0.98;0.60;;;18.90;71.80;;;;;;5041140;28;20357;-84
2023/10/21 11:10:24;;;;;;;2.08;0.70;;;18.70;71.50;;;;;;5038765;28;20036;-85
2023/10/21 11:12:51;;;;;;;1.40;0.60;;;18.60;71.30;;;;;;5077730;28;20127;-84
2023/10/21 11:15:18;;;;;;;1.00;0.50;;;18.50;71.10;;;;;;5065966;28;20111;-83
2023/10/21 11:17:47;;;;;;;0.70;0.70;;;18.40;71.00;;;;;;5040975;28;20518;-81
2023/10/21 11:20:14;;;;;;;1.60;0.50;;;18.30;70.80;;;;;;5056451;28;20040;-82
2023/10/21 11:22:40;;;;;;;0.93;0.60;;;18.30;70.90;;;;;;5044625;28;20455;-85
2023/10/21 11:25:07;;;;;;;1.75;0.80;;;18.20;70.70;;;;;;5046984;28;20061;-83
2023/10/21 11:27:35;;;;;;;1.40;1.02;;;18.20;70.70;;;;;;5056480;28;20028;-85
2023/10/21 11:30:07;;;;;;;1.25;0.77;;;18.20;70.60;;;;;;5062823;28;20032;-81
2023/10/21 11:32:36;;;;;;;4.03;1.75;;;18.10;70.30;;;;;;5066965;28;20032;-86
2023/10/21 11:35:04;;;;;;;2.72;1.08;;;18.10;70.40;;;;;;5051696;28;20039;-84
2023/10/21 11:37:30;;;;;;;1.98;1.20;;;18.10;70.50;;;;;;5058235;28;20288;-85
2023/10/21 11:39:57;;;;;;;1.50;1.23;;;18.10;70.40;;;;;;5050746;28;20056;-85
2023/10/21 11:42:24;;;;;;;3.40;1.10;;;18.10;70.30;;;;;;5041665;28;20028;-85
2023/10/21 11:44:55;;;;;;;1.63;1.17;;;18.10;70.30;;;;;;5068560;28;20054;-83
2023/10/21 11:47:25;;;;;;;3.90;1.23;;;18.00;70.10;;;;;;5064063;28;20039;-82
2023/10/21 11:49:54;;;;;;;2.42;1.73;;;18.00;70.30;;;;;;5041640;28;20036;-79
2023/10/21 11:52:21;;;;;;;3.53;1.50;;;18.10;70.50;;;;;;5064148;28;20028;-83
2023/10/21 12:01:46;;;;;;;1.83;1.50;;;18.20;70.30;;;;;;5054379;28;20127;-82
2023/10/21 12:10:00;;;;;;;5.68;1.77;;;18.20;69.80;;;;;;5060671;28;20028;-79
2023/10/21 12:16:59;;;;;;;3.90;1.30;;;18.40;70.20;;;;;;5057758;28;20287;-84
2023/10/21 12:28:06;;;;;;;1.67;1.40;;;18.30;69.40;;;;;;5056687;28;20103;-83
2023/10/21 12:35:38;;;;;;;1.70;1.60;;;18.00;69.10;;;;;;5053895;28;20029;-84
2023/10/21 12:38:22;;;;;;;1.88;1.00;;;17.90;69.10;;;;;;5058160;28;20183;-84
2023/10/21 12:43:38;;;;;;;1.83;1.10;;;17.80;68.90;;;;;;5061732;28;20512;-83
2023/10/21 12:46:39;;;;;;;1.13;1.10;;;17.80;68.80;;;;;;5057410;28;20111;-85
2023/10/21 12:48:57;;;;;;;1.93;1.20;;;17.80;68.60;;;;;;5059073;28;20074;-86
2023/10/21 12:51:26;;;;;;;1.55;1.10;;;17.80;68.70;;;;;;5059686;28;20024;-85
2023/10/21 12:53:52;;;;;;;1.80;1.30;;;17.70;68.30;;;;;;5064476;28;20478;-84
2023/10/21 12:56:18;;;;;;;1.73;1.40;;;17.70;68.30;;;;;;5060460;28;20105;-85
2023/10/21 12:58:45;;;;;;;2.03;1.10;;;17.60;68.00;;;;;;5044465;28;20156;-83
2023/10/21 13:01:14;;;;;;;1.85;0.98;;;17.60;68.00;;;;;;5058358;28;20503;-82
2023/10/21 13:03:44;;;;;;;;;;;17.60;67.90;;;;;;5062045;28;20039;-83
2023/10/21 13:06:10;;;;;;;1.13;0.90;;;17.60;68.00;;;;;;5059719;28;19916;-81
2023/10/21 13:08:36;;;;;;;1.30;1.10;;;17.60;68.20;;;;;;5059317;28;20163;-82
2023/10/21 13:11:03;;;;;;;1.35;1.25;;;17.50;67.80;;;;;;5058854;28;20121;-82
2023/10/21 13:13:35;;;;;;;1.40;1.00;;;17.50;67.70;;;;;;5079384;28;20040;-82
2023/10/21 13:16:03;;;;;;;3.97;2.23;;;17.60;67.80;;;;;;5061215;28;20475;-82
2023/10/21 13:18:29;;;;;;;1.33;1.20;;;17.60;67.60;;;;;;5060700;28;20032;-82
2023/10/21 13:20:56;;;;;;;3.22;2.15;;;17.60;67.40;;;;;;5060039;28;20106;-82
2023/10/21 13:23:22;;;;;;;2.00;1.05;;;17.70;67.40;;;;;;5042526;28;20033;-82
2023/10/21 13:25:48;;;;;;;2.25;1.08;;;17.70;67.30;;;;;;5060139;28;20300;-81